Time;durP1;ratioP1;P1;durP2;ratioP2;P2;SDS_P1;SDS_P2;PMS_P1;PMS_P2;Temp;Humidity;BMP_temperature;BMP_pressure;BME280_temperature;BME280_humidity;BME280_pressure;Samples;Min_cycle;Max_cycle;Signal;HPM_P1;HPM_P2
2023/03/03 00:00:15;;;;;;;54.85;22.92;;;-1.10;99.90;;;;;;2084965;28;20205;-61
2023/03/03 00:01:24;;;;;;;51.42;22.25;;;-1.10;99.90;;;;;;2084988;28;20266;-62
2023/03/03 00:02:29;;;;;;;49.60;21.50;;;-1.10;99.90;;;;;;2076303;28;20190;-63
2023/03/03 00:03:35;;;;;;;44.67;20.50;;;-1.00;99.90;;;;;;2078612;28;20185;-62
2023/03/03 00:04:41;;;;;;;48.17;21.23;;;-1.10;99.90;;;;;;2085746;28;20755;-63
2023/03/03 00:05:47;;;;;;;52.45;23.00;;;-1.10;99.90;;;;;;2085214;28;20188;-61
2023/03/03 00:06:52;;;;;;;45.38;21.80;;;-1.00;99.90;;;;;;2085161;28;20188;-63
2023/03/03 00:07:59;;;;;;;57.55;23.85;;;-1.10;99.90;;;;;;2084876;28;20214;-63
2023/03/03 00:09:04;;;;;;;49.28;21.92;;;-1.10;99.90;;;;;;2081446;28;20299;-64
2023/03/03 00:10:10;;;;;;;51.63;21.05;;;-1.00;99.90;;;;;;2084822;28;20196;-63
2023/03/03 00:11:16;;;;;;;51.00;21.08;;;-1.00;99.90;;;;;;2084939;28;20716;-63
2023/03/03 00:12:29;;;;;;;48.17;21.30;;;-1.00;99.90;;;;;;2072594;28;20657;-63
2023/03/03 00:13:51;;;;;;;51.42;20.67;;;-1.20;99.90;;;;;;2070119;28;20182;-63
2023/03/03 00:14:57;;;;;;;60.38;23.95;;;-1.10;99.90;;;;;;2071371;28;20189;-63
2023/03/03 00:16:38;;;;;;;49.20;23.27;;;-1.10;99.90;;;;;;2074457;28;20212;-64
2023/03/03 00:17:44;;;;;;;55.22;22.25;;;-1.00;99.90;;;;;;2083897;28;20188;-63
2023/03/03 00:18:50;;;;;;;48.25;22.02;;;-1.00;99.90;;;;;;2081486;28;20242;-63
2023/03/03 00:19:56;;;;;;;54.65;23.20;;;-0.90;99.90;;;;;;2084824;28;20690;-63
2023/03/03 00:21:16;;;;;;;54.35;22.52;;;-0.90;99.90;;;;;;2076054;28;20254;-64
2023/03/03 00:22:22;;;;;;;55.42;22.90;;;-0.80;99.90;;;;;;2069530;28;20683;-63
2023/03/03 00:23:38;;;;;;;49.50;24.50;;;-0.80;99.90;;;;;;2074131;28;20287;-63
2023/03/03 00:24:44;;;;;;;58.35;23.92;;;-0.80;99.90;;;;;;2085079;28;20279;-63
2023/03/03 00:25:52;;;;;;;67.45;24.35;;;-0.70;99.90;;;;;;2081989;28;20187;-62
2023/03/03 00:27:01;;;;;;;54.92;25.55;;;-0.70;99.90;;;;;;2084927;28;20233;-63
2023/03/03 00:28:27;;;;;;;64.65;27.17;;;-0.70;99.90;;;;;;2075780;28;20181;-63
2023/03/03 00:29:55;;;;;;;61.65;23.48;;;-0.70;99.90;;;;;;2069113;28;20705;-63
2023/03/03 00:31:02;;;;;;;66.15;26.65;;;-0.60;99.90;;;;;;2069586;28;20209;-63
2023/03/03 00:32:13;;;;;;;66.40;26.58;;;-0.60;99.90;;;;;;2077219;28;20596;-63
2023/03/03 00:33:34;;;;;;;70.63;26.98;;;-0.60;99.90;;;;;;2082272;28;20190;-63
2023/03/03 00:34:37;;;;;;;61.20;25.30;;;-0.70;99.90;;;;;;2081616;28;20754;-63
2023/03/03 00:35:43;;;;;;;63.13;24.92;;;-0.60;99.90;;;;;;2084725;28;20570;-63
2023/03/03 00:36:54;;;;;;;57.13;23.52;;;-0.50;99.90;;;;;;2076239;28;20189;-63
2023/03/03 00:38:11;;;;;;;61.92;25.35;;;-0.50;99.90;;;;;;2078730;28;20256;-63
2023/03/03 00:39:37;;;;;;;54.58;22.60;;;-0.50;99.90;;;;;;2073047;28;20266;-63
2023/03/03 00:40:43;;;;;;;53.83;22.90;;;-0.60;99.90;;;;;;2077880;28;20183;-63
2023/03/03 00:41:49;;;;;;;45.13;21.13;;;-0.60;99.90;;;;;;2084878;28;20181;-63
2023/03/03 00:42:58;;;;;;;47.55;21.38;;;-0.60;99.90;;;;;;2081266;28;20202;-63
2023/03/03 00:44:43;;;;;;;56.97;22.40;;;-0.60;99.90;;;;;;2084843;28;20191;-63
2023/03/03 00:45:57;;;;;;;56.67;23.88;;;-0.50;99.90;;;;;;2080709;28;20229;-63
2023/03/03 00:47:28;;;;;;;48.22;21.48;;;-0.60;99.90;;;;;;2085463;28;20217;-63
2023/03/03 00:48:37;;;;;;;47.00;20.25;;;-0.50;99.90;;;;;;2083100;28;20298;-67
2023/03/03 00:49:43;;;;;;;45.35;21.25;;;-0.60;99.90;;;;;;2086549;28;20207;-63
2023/03/03 00:50:50;;;;;;;46.35;20.95;;;-0.70;99.90;;;;;;2082851;28;20194;-64
2023/03/03 00:51:56;;;;;;;50.00;21.48;;;-0.80;99.90;;;;;;2086547;28;20338;-63
2023/03/03 00:53:09;;;;;;;46.55;19.52;;;-0.80;99.90;;;;;;2086651;28;20180;-64
2023/03/03 00:54:15;;;;;;;44.13;21.10;;;-0.90;99.90;;;;;;2078043;28;20181;-64
2023/03/03 00:55:21;;;;;;;48.63;20.88;;;-0.90;99.90;;;;;;2079357;28;20192;-63
2023/03/03 00:56:27;;;;;;;52.40;20.75;;;-1.00;99.90;;;;;;2077377;28;20195;-64
2023/03/03 00:57:32;;;;;;;46.67;20.45;;;-1.00;99.90;;;;;;2078307;28;20678;-63
2023/03/03 00:58:38;;;;;;;47.40;21.05;;;-1.00;99.90;;;;;;2086654;28;20196;-64
2023/03/03 00:59:44;;;;;;;47.40;21.02;;;-1.00;99.90;;;;;;2087067;28;20201;-63
2023/03/03 01:00:52;;;;;;;50.88;22.20;;;-1.10;99.90;;;;;;2084821;28;20187;-63
2023/03/03 01:01:58;;;;;;;56.88;23.90;;;-1.10;99.90;;;;;;2076505;28;20191;-64
2023/03/03 01:03:13;;;;;;;56.25;23.38;;;-1.10;99.90;;;;;;2086517;28;20229;-63
2023/03/03 01:04:19;;;;;;;59.28;24.10;;;-1.10;99.90;;;;;;2074585;28;20739;-63
2023/03/03 01:05:24;;;;;;;49.25;21.52;;;-1.10;99.90;;;;;;2079190;28;20232;-64
2023/03/03 01:06:30;;;;;;;53.67;21.98;;;-1.00;99.90;;;;;;2086823;28;20705;-63
2023/03/03 01:07:36;;;;;;;52.00;22.70;;;-1.00;99.90;;;;;;2086923;28;20199;-63
2023/03/03 01:08:41;;;;;;;55.60;22.85;;;-1.00;99.90;;;;;;2086990;28;20235;-63
2023/03/03 01:09:47;;;;;;;53.33;22.02;;;-1.00;99.90;;;;;;2082819;28;20669;-63
2023/03/03 01:10:57;;;;;;;50.28;21.50;;;-1.00;99.90;;;;;;2086299;28;20219;-63
2023/03/03 01:12:03;;;;;;;55.67;25.17;;;-1.10;99.90;;;;;;2086744;28;20716;-63
2023/03/03 01:13:05;;;;;;;48.88;22.25;;;-1.10;99.90;;;;;;2078011;28;20195;-62
2023/03/03 01:14:09;;;;;;;52.65;23.38;;;-1.10;99.90;;;;;;2079026;28;20220;-63
2023/03/03 01:15:15;;;;;;;47.85;22.02;;;-1.10;99.90;;;;;;2086808;28;20172;-63
2023/03/03 01:16:21;;;;;;;47.88;22.70;;;-1.10;99.90;;;;;;2074547;28;20216;-63
2023/03/03 01:17:27;;;;;;;49.75;23.38;;;-1.20;99.90;;;;;;2078864;28;20181;-63
2023/03/03 01:18:34;;;;;;;46.95;23.13;;;-1.20;99.90;;;;;;2077719;28;20185;-63
2023/03/03 01:19:40;;;;;;;49.67;22.15;;;-1.20;99.90;;;;;;2079089;28;20251;-62
2023/03/03 01:20:46;;;;;;;45.47;20.13;;;-1.20;99.90;;;;;;2086786;28;20192;-63
2023/03/03 01:21:53;;;;;;;50.08;21.67;;;-1.20;99.90;;;;;;2082931;28;20660;-62
2023/03/03 01:22:58;;;;;;;57.20;24.73;;;-1.20;99.90;;;;;;2085675;28;20223;-61
2023/03/03 01:24:04;;;;;;;55.17;22.98;;;-1.20;99.90;;;;;;2086021;28;20219;-63
2023/03/03 01:25:09;;;;;;;54.20;22.33;;;-1.20;99.90;;;;;;2083017;28;20278;-63
2023/03/03 01:26:15;;;;;;;55.25;25.65;;;-1.20;99.90;;;;;;2086319;28;20275;-62
2023/03/03 01:27:21;;;;;;;53.58;22.30;;;-1.20;99.90;;;;;;2086325;28;20189;-63
2023/03/03 01:28:27;;;;;;;53.65;23.85;;;-1.20;99.90;;;;;;2086660;28;20200;-63
2023/03/03 01:29:32;;;;;;;51.03;22.05;;;-1.10;99.90;;;;;;2086897;28;20195;-62
2023/03/03 01:30:38;;;;;;;54.63;21.52;;;-1.10;99.90;;;;;;2073714;28;20192;-64
2023/03/03 01:31:44;;;;;;;54.55;23.23;;;-1.20;99.90;;;;;;2078890;28;20212;-63
2023/03/03 01:32:50;;;;;;;49.80;21.95;;;-1.20;99.90;;;;;;2086260;28;20176;-63
2023/03/03 01:33:56;;;;;;;50.47;22.52;;;-1.20;99.90;;;;;;2082819;28;20657;-65
2023/03/03 01:35:02;;;;;;;49.90;22.48;;;-1.20;99.90;;;;;;2086226;28;20176;-63
2023/03/03 01:36:04;;;;;;;59.75;23.98;;;-1.20;99.90;;;;;;2085931;28;20560;-63
2023/03/03 01:37:09;;;;;;;58.38;26.23;;;-1.20;99.90;;;;;;2082679;28;20185;-63
2023/03/03 01:38:15;;;;;;;61.55;24.50;;;-1.20;99.90;;;;;;2085914;28;20275;-63
2023/03/03 01:39:20;;;;;;;64.28;24.80;;;-1.20;99.90;;;;;;2086304;28;20216;-64
2023/03/03 01:40:34;;;;;;;58.95;26.08;;;-1.20;99.90;;;;;;2082821;28;20180;-63
2023/03/03 01:41:38;;;;;;;68.88;25.63;;;-1.20;99.90;;;;;;2086217;28;20227;-63
2023/03/03 01:42:43;;;;;;;57.42;23.45;;;-1.20;99.90;;;;;;2082578;28;20191;-63
2023/03/03 01:43:49;;;;;;;61.08;24.70;;;-1.20;99.90;;;;;;2086027;28;20192;-63
2023/03/03 01:45:26;;;;;;;57.30;23.52;;;-1.20;99.90;;;;;;2077406;28;20184;-63
2023/03/03 01:46:50;;;;;;;61.85;25.20;;;-1.20;99.90;;;;;;2080683;28;20899;-62
2023/03/03 01:48:09;;;;;;;68.10;25.95;;;-1.20;99.90;;;;;;2083330;28;20186;-62
2023/03/03 01:49:28;;;;;;;68.40;24.27;;;-1.20;99.90;;;;;;2074244;28;21016;-63
2023/03/03 01:50:51;;;;;;;57.78;24.67;;;-1.20;99.90;;;;;;2076802;28;20203;-62
2023/03/03 01:52:02;;;;;;;57.72;24.90;;;-1.20;99.90;;;;;;2086723;28;20180;-65
2023/03/03 01:53:09;;;;;;;63.00;24.67;;;-1.20;99.90;;;;;;2077773;28;20272;-62
2023/03/03 01:54:22;;;;;;;58.17;23.63;;;-1.20;99.90;;;;;;2070584;28;20173;-63
2023/03/03 01:55:36;;;;;;;52.65;24.45;;;-1.20;99.90;;;;;;2079841;28;20551;-62
2023/03/03 01:56:42;;;;;;;51.22;21.88;;;-1.20;99.90;;;;;;2074236;28;20200;-63
2023/03/03 01:57:57;;;;;;;63.47;24.92;;;-1.20;99.90;;;;;;2062250;28;20571;-64
2023/03/03 01:59:18;;;;;;;61.38;24.85;;;-1.20;99.90;;;;;;2079456;28;20254;-62
2023/03/03 02:00:24;;;;;;;63.42;25.30;;;-1.20;99.90;;;;;;2073596;28;20189;-63
2023/03/03 02:01:31;;;;;;;65.22;26.50;;;-1.20;99.90;;;;;;2070634;28;20202;-63
2023/03/03 02:02:38;;;;;;;57.33;25.20;;;-1.20;99.90;;;;;;2058837;28;20211;-64
2023/03/03 02:03:44;;;;;;;52.33;24.00;;;-1.20;99.90;;;;;;2070502;28;20582;-63
2023/03/03 02:04:49;;;;;;;53.65;21.70;;;-1.20;99.90;;;;;;2086538;28;20660;-63
2023/03/03 02:06:21;;;;;;;49.75;22.35;;;-1.20;99.90;;;;;;2082766;28;20649;-63
2023/03/03 02:07:30;;;;;;;55.50;22.27;;;-1.20;99.90;;;;;;2083001;28;20676;-62
2023/03/03 02:08:51;;;;;;;56.50;24.63;;;-1.30;99.90;;;;;;2085242;28;20261;-62
2023/03/03 02:10:13;;;;;;;59.35;24.10;;;-1.20;99.90;;;;;;2085311;28;20288;-61
2023/03/03 02:11:21;;;;;;;56.42;23.98;;;-1.30;99.90;;;;;;2085004;28;20204;-64
2023/03/03 02:12:55;;;;;;;51.60;22.90;;;-1.20;99.90;;;;;;2082934;28;20192;-63
2023/03/03 02:14:01;;;;;;;61.88;24.58;;;-1.30;99.90;;;;;;2084384;28;20192;-61
2023/03/03 02:15:27;;;;;;;55.05;23.05;;;-1.30;99.90;;;;;;2085806;28;20211;-62
2023/03/03 02:16:33;;;;;;;58.83;23.42;;;-1.30;99.90;;;;;;2073673;28;20189;-62
2023/03/03 02:17:38;;;;;;;49.97;20.88;;;-1.40;99.90;;;;;;2077664;28;20251;-65
2023/03/03 02:18:44;;;;;;;51.50;22.27;;;-1.40;99.90;;;;;;2085767;28;20199;-63
2023/03/03 02:20:18;;;;;;;51.45;22.17;;;-1.40;99.90;;;;;;2082702;28;20648;-64
2023/03/03 02:21:26;;;;;;;58.95;24.92;;;-1.40;99.90;;;;;;2084042;28;20212;-63
2023/03/03 02:23:01;;;;;;;61.33;25.27;;;-1.50;99.90;;;;;;2077629;28;20196;-63
2023/03/03 02:24:25;;;;;;;57.95;24.73;;;-1.40;99.90;;;;;;2071278;28;20250;-62
2023/03/03 02:25:54;;;;;;;62.17;24.65;;;-1.40;99.90;;;;;;2078879;28;20191;-63
2023/03/03 02:27:00;;;;;;;57.45;23.90;;;-1.40;99.90;;;;;;2060242;28;20194;-62
2023/03/03 02:28:04;;;;;;;55.30;23.38;;;-1.40;99.90;;;;;;2085554;28;20189;-63
2023/03/03 02:29:10;;;;;;;53.53;22.75;;;-1.40;99.90;;;;;;2077764;28;20213;-64
2023/03/03 02:30:19;;;;;;;54.55;22.60;;;-1.30;99.90;;;;;;2070624;28;20559;-63
2023/03/03 02:31:26;;;;;;;64.88;24.52;;;-1.40;99.90;;;;;;2066608;28;20201;-62
2023/03/03 02:32:28;;;;;;;53.42;22.50;;;-1.40;99.90;;;;;;2078048;28;20200;-63
2023/03/03 02:33:33;;;;;;;67.30;24.48;;;-1.40;99.90;;;;;;2085605;28;20184;-64
2023/03/03 02:34:51;;;;;;;62.15;24.63;;;-1.30;99.90;;;;;;2081466;28;20187;-63
2023/03/03 02:35:54;;;;;;;55.67;22.95;;;-1.30;99.90;;;;;;2085201;28;20186;-61
2023/03/03 02:36:59;;;;;;;53.20;22.92;;;-1.40;99.90;;;;;;2071400;28;20223;-64
2023/03/03 02:38:18;;;;;;;50.58;23.77;;;-1.40;99.90;;;;;;2078491;28;20675;-63
2023/03/03 02:39:26;;;;;;;44.05;19.70;;;-1.40;99.90;;;;;;2076958;28;20653;-63
2023/03/03 02:40:36;;;;;;;48.97;20.23;;;-1.40;99.90;;;;;;2076901;28;20638;-62
2023/03/03 02:41:57;;;;;;;46.17;20.20;;;-1.40;99.90;;;;;;2073762;28;20667;-60
2023/03/03 02:43:05;;;;;;;37.88;17.98;;;-1.40;99.90;;;;;;2077195;28;20176;-64
2023/03/03 02:44:18;;;;;;;47.45;19.67;;;-1.50;99.90;;;;;;2084913;28;20195;-63
2023/03/03 02:45:23;;;;;;;46.15;20.05;;;-1.60;99.90;;;;;;2074254;28;20624;-64
2023/03/03 02:46:35;;;;;;;50.03;20.38;;;-1.60;99.90;;;;;;2077495;28;20196;-63
2023/03/03 02:47:48;;;;;;;49.08;21.98;;;-1.60;99.90;;;;;;2082787;28;20219;-65
2023/03/03 02:48:53;;;;;;;47.28;21.90;;;-1.60;99.90;;;;;;2085529;28;20227;-62
2023/03/03 02:49:59;;;;;;;49.30;20.13;;;-1.60;99.90;;;;;;2086237;28;20180;-61
2023/03/03 02:51:04;;;;;;;46.90;20.02;;;-1.60;99.90;;;;;;2086726;28;20585;-63
2023/03/03 02:52:13;;;;;;;46.97;19.95;;;-1.60;99.90;;;;;;2087023;28;20202;-63
2023/03/03 02:53:19;;;;;;;46.17;20.77;;;-1.60;99.90;;;;;;2085788;28;20199;-62
2023/03/03 02:54:27;;;;;;;61.35;24.27;;;-1.70;99.90;;;;;;2085637;28;20204;-63
2023/03/03 02:55:33;;;;;;;54.50;23.63;;;-1.60;99.90;;;;;;2082612;28;20198;-65
2023/03/03 02:56:39;;;;;;;54.20;23.05;;;-1.60;99.90;;;;;;2085503;28;20185;-63
2023/03/03 02:57:45;;;;;;;57.95;23.13;;;-1.60;99.90;;;;;;2085013;28;20636;-62
2023/03/03 02:58:51;;;;;;;59.83;22.85;;;-1.60;99.90;;;;;;2077337;28;20201;-65
2023/03/03 02:59:57;;;;;;;57.13;23.35;;;-1.60;99.90;;;;;;2078962;28;20185;-61
2023/03/03 03:01:03;;;;;;;59.38;24.80;;;-1.50;99.90;;;;;;2082076;28;20219;-63
2023/03/03 03:02:09;;;;;;;60.67;25.30;;;-1.60;99.90;;;;;;2076822;28;20294;-63
2023/03/03 03:03:15;;;;;;;55.85;22.90;;;-1.50;99.90;;;;;;2077593;28;20670;-63
2023/03/03 03:04:24;;;;;;;55.25;22.90;;;-1.50;99.90;;;;;;2080048;28;20214;-62
2023/03/03 03:05:30;;;;;;;52.88;21.13;;;-1.50;99.90;;;;;;2086221;28;20664;-63
2023/03/03 03:06:36;;;;;;;51.20;22.70;;;-1.50;99.90;;;;;;2081989;28;20187;-62
2023/03/03 03:07:42;;;;;;;48.88;21.45;;;-1.50;99.90;;;;;;2084523;28;20267;-63
2023/03/03 03:08:47;;;;;;;50.80;22.65;;;-1.50;99.90;;;;;;2084952;28;20208;-62
2023/03/03 03:09:54;;;;;;;52.20;20.02;;;-1.40;99.90;;;;;;2082273;28;20187;-62
2023/03/03 03:11:00;;;;;;;49.70;22.90;;;-1.50;99.90;;;;;;2085267;28;20204;-63
2023/03/03 03:12:04;;;;;;;61.97;24.35;;;-1.50;99.90;;;;;;2085274;28;20588;-62
2023/03/03 03:13:09;;;;;;;55.83;24.17;;;-1.50;99.90;;;;;;2085943;28;20189;-63
2023/03/03 03:14:14;;;;;;;59.22;24.05;;;-1.50;99.90;;;;;;2086107;28;20198;-62
2023/03/03 03:15:20;;;;;;;52.10;23.15;;;-1.50;99.90;;;;;;2085538;28;20299;-63
2023/03/03 03:16:26;;;;;;;44.92;19.88;;;-1.60;99.90;;;;;;2085639;28;20180;-63
2023/03/03 03:17:32;;;;;;;48.72;21.20;;;-1.60;99.90;;;;;;2085460;28;20215;-64
2023/03/03 03:18:37;;;;;;;46.83;19.55;;;-1.60;99.90;;;;;;2081571;28;20180;-63
2023/03/03 03:19:43;;;;;;;37.10;18.48;;;-1.60;99.90;;;;;;2085268;28;20970;-63
2023/03/03 03:20:49;;;;;;;42.63;18.80;;;-1.60;99.90;;;;;;2085369;28;20268;-63
2023/03/03 03:21:55;;;;;;;45.58;18.55;;;-1.70;99.90;;;;;;2081958;28;20226;-63
2023/03/03 03:23:00;;;;;;;42.88;19.05;;;-1.70;99.90;;;;;;2085274;28;20176;-61
2023/03/03 03:24:05;;;;;;;42.65;18.27;;;-1.80;99.90;;;;;;2085018;28;20228;-61
2023/03/03 03:25:09;;;;;;;47.63;19.27;;;-1.80;99.90;;;;;;2081814;28;20282;-64
2023/03/03 03:26:15;;;;;;;43.38;18.95;;;-1.80;99.90;;;;;;2085202;28;20181;-63
2023/03/03 03:27:22;;;;;;;37.85;16.95;;;-1.80;99.90;;;;;;2085286;28;20200;-61
2023/03/03 03:28:28;;;;;;;45.50;18.10;;;-1.80;99.90;;;;;;2081924;28;20633;-62
2023/03/03 03:29:34;;;;;;;40.03;18.27;;;-1.80;99.90;;;;;;2085166;28;20189;-63
2023/03/03 03:30:40;;;;;;;42.85;18.85;;;-1.90;99.90;;;;;;2085540;28;20185;-62
2023/03/03 03:31:46;;;;;;;44.08;19.63;;;-1.90;99.90;;;;;;2077123;28;20181;-61
2023/03/03 03:32:52;;;;;;;46.15;19.08;;;-1.90;99.90;;;;;;2077556;28;20192;-63
2023/03/03 03:33:59;;;;;;;47.08;21.08;;;-1.90;99.90;;;;;;2081980;28;20175;-63
2023/03/03 03:35:04;;;;;;;54.15;21.83;;;-1.90;99.90;;;;;;2085230;28;20233;-62
2023/03/03 03:36:09;;;;;;;54.45;22.98;;;-1.90;99.90;;;;;;2076238;28;20197;-62
2023/03/03 03:37:15;;;;;;;54.95;22.58;;;-1.80;99.90;;;;;;2074098;28;20251;-63
2023/03/03 03:38:22;;;;;;;51.78;22.23;;;-1.80;99.90;;;;;;2084877;28;20172;-63
2023/03/03 03:39:26;;;;;;;56.15;22.58;;;-1.80;99.90;;;;;;2068239;28;20193;-61
2023/03/03 03:40:32;;;;;;;57.35;22.33;;;-1.80;99.90;;;;;;2070644;28;20203;-62
2023/03/03 03:41:37;;;;;;;58.15;22.50;;;-1.80;99.90;;;;;;2086027;28;20603;-62
2023/03/03 03:42:43;;;;;;;56.00;20.50;;;-1.70;99.90;;;;;;2085205;28;20299;-63
2023/03/03 03:43:48;;;;;;;47.28;21.23;;;-1.70;99.90;;;;;;2076353;28;20191;-63
2023/03/03 03:44:54;;;;;;;49.85;22.08;;;-1.70;99.90;;;;;;2077081;28;20203;-63
2023/03/03 03:45:59;;;;;;;51.85;21.80;;;-1.70;99.90;;;;;;2081621;28;20184;-63
2023/03/03 03:47:04;;;;;;;49.30;21.52;;;-1.70;99.90;;;;;;2085201;28;20635;-63
2023/03/03 03:48:09;;;;;;;53.47;21.75;;;-1.70;99.90;;;;;;2084957;28;20212;-63
2023/03/03 03:49:14;;;;;;;54.30;21.55;;;-1.70;99.90;;;;;;2081506;28;20217;-63
2023/03/03 03:50:20;;;;;;;47.05;19.23;;;-1.70;99.90;;;;;;2076277;28;20183;-62
2023/03/03 03:51:25;;;;;;;43.75;20.38;;;-1.70;99.90;;;;;;2076819;28;20627;-63
2023/03/03 03:52:31;;;;;;;42.65;19.50;;;-1.70;99.90;;;;;;2081798;28;20196;-63
2023/03/03 03:53:36;;;;;;;41.08;19.48;;;-1.60;99.90;;;;;;2085000;28;20206;-62
2023/03/03 03:54:42;;;;;;;45.72;20.52;;;-1.70;99.90;;;;;;2085293;28;20242;-63
2023/03/03 03:55:44;;;;;;;44.40;18.87;;;-1.70;99.90;;;;;;2081300;28;20695;-63
2023/03/03 03:56:48;;;;;;;49.42;21.17;;;-1.60;99.90;;;;;;2081894;28;20195;-63
2023/03/03 03:57:56;;;;;;;45.60;20.60;;;-1.60;99.90;;;;;;2089011;28;20191;-63
2023/03/03 03:59:00;;;;;;;51.60;22.90;;;-1.60;99.90;;;;;;2084238;28;20176;-61
2023/03/03 04:00:07;;;;;;;49.33;20.85;;;-1.60;99.90;;;;;;2076244;28;20579;-63
2023/03/03 04:01:09;;;;;;;49.83;21.05;;;-1.60;99.90;;;;;;2068415;28;20227;-63
2023/03/03 04:02:15;;;;;;;49.85;19.52;;;-1.70;99.90;;;;;;2074167;28;20223;-61
2023/03/03 04:03:20;;;;;;;45.50;20.25;;;-1.70;99.90;;;;;;2085059;28;20739;-61
2023/03/03 04:04:26;;;;;;;44.90;19.35;;;-1.80;99.90;;;;;;2085161;28;20611;-62
2023/03/03 04:05:31;;;;;;;44.55;19.17;;;-1.70;99.90;;;;;;2082102;28;20192;-63
2023/03/03 04:06:37;;;;;;;42.80;18.88;;;-1.80;99.90;;;;;;2085176;28;20251;-64
2023/03/03 04:07:42;;;;;;;42.47;18.63;;;-1.80;99.90;;;;;;2085116;28;20203;-63
2023/03/03 04:08:47;;;;;;;51.65;21.35;;;-1.80;99.90;;;;;;2085494;28;20223;-62
2023/03/03 04:09:53;;;;;;;40.85;20.35;;;-1.80;99.90;;;;;;2085758;28;20203;-63
2023/03/03 04:10:58;;;;;;;48.92;21.00;;;-1.80;99.90;;;;;;2076186;28;20622;-63
2023/03/03 04:12:04;;;;;;;46.10;20.75;;;-1.80;99.90;;;;;;2076789;28;20205;-63
2023/03/03 04:13:09;;;;;;;44.63;20.48;;;-1.70;99.90;;;;;;2083182;28;20191;-63
2023/03/03 04:14:15;;;;;;;44.03;18.70;;;-1.80;99.90;;;;;;2084552;28;20660;-63
2023/03/03 04:15:20;;;;;;;40.70;17.92;;;-1.70;99.90;;;;;;2084713;28;20974;-63
2023/03/03 04:16:26;;;;;;;46.45;19.58;;;-1.80;99.90;;;;;;2085055;28;20192;-63
2023/03/03 04:17:31;;;;;;;46.08;20.73;;;-1.70;99.90;;;;;;2081481;28;20179;-63
2023/03/03 04:18:37;;;;;;;44.30;18.90;;;-1.70;99.90;;;;;;2084968;28;20196;-63
2023/03/03 04:19:42;;;;;;;43.33;18.33;;;-1.70;99.90;;;;;;2084863;28;20235;-62
2023/03/03 04:20:49;;;;;;;44.95;18.20;;;-1.60;99.90;;;;;;2081896;28;20629;-62
2023/03/03 04:21:54;;;;;;;43.70;18.50;;;-1.50;99.90;;;;;;2084926;28;20180;-63
2023/03/03 04:22:59;;;;;;;48.65;20.05;;;-1.60;99.90;;;;;;2084590;28;20185;-62
2023/03/03 04:24:05;;;;;;;46.45;18.88;;;-1.60;99.90;;;;;;2085396;28;20265;-63
2023/03/03 04:25:14;;;;;;;49.08;20.20;;;-1.60;99.90;;;;;;2085828;28;20215;-62
2023/03/03 04:26:16;;;;;;;50.22;20.88;;;-1.50;99.90;;;;;;2085166;28;20555;-62
2023/03/03 04:27:21;;;;;;;45.05;20.23;;;-1.40;99.90;;;;;;2085063;28;20204;-64
2023/03/03 04:28:26;;;;;;;45.03;20.77;;;-1.40;99.90;;;;;;2084572;28;20673;-63
2023/03/03 04:29:33;;;;;;;44.83;18.70;;;-1.30;99.90;;;;;;2085492;28;20567;-63
2023/03/03 04:30:37;;;;;;;42.28;18.80;;;-1.20;99.90;;;;;;2085395;28;20192;-63
2023/03/03 04:31:43;;;;;;;44.15;20.15;;;-1.10;99.90;;;;;;2085531;28;20192;-63
2023/03/03 04:32:49;;;;;;;45.47;20.10;;;-1.10;99.90;;;;;;2081455;28;20193;-63
2023/03/03 04:33:54;;;;;;;45.13;19.75;;;-1.00;99.90;;;;;;2084855;28;20195;-63
2023/03/03 04:34:59;;;;;;;46.17;19.75;;;-1.00;99.90;;;;;;2084942;28;20251;-63
2023/03/03 04:36:05;;;;;;;45.90;19.88;;;-1.00;99.90;;;;;;2081342;28;20258;-63
2023/03/03 04:37:09;;;;;;;50.08;21.17;;;-0.90;99.90;;;;;;2084964;28;20271;-63
2023/03/03 04:38:15;;;;;;;41.33;20.65;;;-0.90;99.90;;;;;;2084437;28;20307;-63
2023/03/03 04:39:20;;;;;;;50.35;20.73;;;-0.80;99.90;;;;;;2081985;28;20195;-63
2023/03/03 04:40:26;;;;;;;44.20;20.02;;;-0.80;99.90;;;;;;2084826;28;20202;-63
2023/03/03 04:41:31;;;;;;;47.88;21.67;;;-0.80;99.90;;;;;;2084973;28;20214;-64
2023/03/03 04:42:37;;;;;;;41.78;18.80;;;-0.80;99.90;;;;;;2085468;28;20195;-62
2023/03/03 04:43:42;;;;;;;44.22;18.70;;;-0.80;99.90;;;;;;2085536;28;20195;-63
2023/03/03 04:44:47;;;;;;;39.85;18.20;;;-0.80;99.90;;;;;;2085086;28;20207;-63
2023/03/03 04:45:53;;;;;;;44.03;19.50;;;-0.80;99.90;;;;;;2085044;28;20657;-63
2023/03/03 04:46:58;;;;;;;40.33;18.02;;;-0.80;99.90;;;;;;2084979;28;20211;-61
2023/03/03 04:48:04;;;;;;;44.00;17.58;;;-0.80;99.90;;;;;;2085152;28;20249;-63
2023/03/03 04:49:09;;;;;;;45.13;19.85;;;-0.80;99.90;;;;;;2087311;28;20208;-62
2023/03/03 04:50:15;;;;;;;42.40;18.52;;;-0.70;99.90;;;;;;2085508;28;20272;-63
2023/03/03 04:51:21;;;;;;;42.00;18.27;;;-0.70;99.90;;;;;;2081413;28;20224;-62
2023/03/03 04:52:27;;;;;;;38.33;18.85;;;-0.80;99.90;;;;;;2084925;28;20300;-63
2023/03/03 04:53:32;;;;;;;38.17;18.48;;;-0.70;99.90;;;;;;2084809;28;20216;-67
2023/03/03 04:54:37;;;;;;;36.60;16.98;;;-0.70;99.90;;;;;;2081395;28;20192;-63
2023/03/03 04:55:42;;;;;;;43.35;19.55;;;-0.70;99.90;;;;;;2084745;28;20184;-63
2023/03/03 04:56:48;;;;;;;39.92;18.08;;;-0.60;99.90;;;;;;2084779;28;20173;-62
2023/03/03 04:57:53;;;;;;;40.30;18.08;;;-0.50;99.90;;;;;;2079617;28;20184;-62
2023/03/03 04:58:59;;;;;;;37.42;17.92;;;-0.50;99.90;;;;;;2078496;28;20231;-62
2023/03/03 05:00:05;;;;;;;39.97;18.02;;;-0.40;99.90;;;;;;2084943;28;20191;-63
2023/03/03 05:01:13;;;;;;;38.35;18.13;;;-0.40;99.90;;;;;;2085270;28;20299;-65
2023/03/03 05:02:17;;;;;;;34.33;17.15;;;-0.30;99.90;;;;;;2085526;28;20205;-63
2023/03/03 05:03:23;;;;;;;39.63;17.77;;;-0.30;99.90;;;;;;2075830;28;20692;-64
2023/03/03 05:04:28;;;;;;;34.15;17.42;;;-0.30;99.90;;;;;;2077343;28;20196;-62
2023/03/03 05:05:33;;;;;;;39.55;18.55;;;-0.30;99.90;;;;;;2084629;28;20177;-62
2023/03/03 05:06:39;;;;;;;41.80;18.70;;;-0.30;99.90;;;;;;2081247;28;20180;-63
2023/03/03 05:07:45;;;;;;;45.00;18.10;;;-0.30;99.90;;;;;;2076266;28;20201;-63
2023/03/03 05:08:50;;;;;;;44.25;19.80;;;-0.30;99.90;;;;;;2076723;28;20267;-63
2023/03/03 05:09:56;;;;;;;43.35;17.40;;;-0.30;99.90;;;;;;2081585;28;20177;-63
2023/03/03 05:11:02;;;;;;;43.40;19.48;;;-0.20;99.90;;;;;;2084970;28;20685;-63
2023/03/03 05:12:05;;;;;;;43.38;20.00;;;-0.20;99.90;;;;;;2084723;28;20193;-63
2023/03/03 05:13:09;;;;;;;43.63;20.35;;;-0.20;99.90;;;;;;2081534;28;20195;-63
2023/03/03 05:14:15;;;;;;;49.90;21.02;;;-0.30;99.90;;;;;;2084697;28;20184;-63
2023/03/03 05:15:20;;;;;;;39.55;18.13;;;-0.40;99.90;;;;;;2076028;28;20210;-63
2023/03/03 05:16:26;;;;;;;42.17;19.33;;;-0.40;99.90;;;;;;2076443;28;20177;-63
2023/03/03 05:17:31;;;;;;;41.95;19.75;;;-0.50;99.90;;;;;;2084883;28;20184;-62
2023/03/03 05:18:37;;;;;;;43.13;19.08;;;-0.50;99.90;;;;;;2084850;28;20543;-63
2023/03/03 05:19:42;;;;;;;43.05;18.67;;;-0.40;99.90;;;;;;2085146;28;20181;-64
2023/03/03 05:20:49;;;;;;;44.45;20.98;;;-0.30;99.90;;;;;;2076575;28;20181;-64
2023/03/03 05:21:54;;;;;;;54.83;23.08;;;-0.20;99.90;;;;;;2077264;28;20658;-63
2023/03/03 05:23:00;;;;;;;46.75;21.83;;;-0.10;99.90;;;;;;2084769;28;20665;-64
2023/03/03 05:24:04;;;;;;;57.08;24.08;;;0.00;99.90;;;;;;2075618;28;20682;-63
2023/03/03 05:25:11;;;;;;;49.05;24.88;;;0.00;99.90;;;;;;2068736;28;20190;-63
2023/03/03 05:26:17;;;;;;;58.63;23.52;;;0.00;99.90;;;;;;2076381;28;20268;-63
2023/03/03 05:27:22;;;;;;;64.45;24.83;;;0.10;99.90;;;;;;2075631;28;20222;-63
2023/03/03 05:28:28;;;;;;;48.97;21.83;;;0.20;99.90;;;;;;2073264;28;20208;-63
2023/03/03 05:29:33;;;;;;;52.85;24.30;;;0.20;99.90;;;;;;2084374;28;20180;-64
2023/03/03 05:30:39;;;;;;;52.58;22.95;;;0.30;99.90;;;;;;2084281;28;20615;-64
2023/03/03 05:31:44;;;;;;;55.88;23.90;;;0.30;99.90;;;;;;2081424;28;20227;-63
2023/03/03 05:32:50;;;;;;;60.33;23.73;;;0.40;99.90;;;;;;2084365;28;20275;-63
2023/03/03 05:33:55;;;;;;;55.42;23.52;;;0.50;99.90;;;;;;2084651;28;20181;-63
2023/03/03 05:35:01;;;;;;;41.70;20.33;;;0.50;99.90;;;;;;2086416;28;20276;-63
2023/03/03 05:36:05;;;;;;;53.03;22.30;;;0.50;99.90;;;;;;2086545;28;20181;-63
2023/03/03 05:37:09;;;;;;;44.88;20.70;;;0.60;99.90;;;;;;2086500;28;20711;-63
2023/03/03 05:38:15;;;;;;;44.47;19.95;;;0.60;99.90;;;;;;2086322;28;20197;-63
2023/03/03 05:39:20;;;;;;;43.53;20.77;;;0.60;99.90;;;;;;2086429;28;20177;-63
2023/03/03 05:40:26;;;;;;;46.92;21.42;;;0.60;99.90;;;;;;2086077;28;20542;-63
2023/03/03 05:41:35;;;;;;;46.78;20.65;;;0.70;99.90;;;;;;2085966;28;20689;-63
2023/03/03 05:42:37;;;;;;;44.10;20.05;;;0.70;99.90;;;;;;2085782;28;20532;-63
2023/03/03 05:43:42;;;;;;;41.47;18.60;;;0.70;99.90;;;;;;2082246;28;20539;-63
2023/03/03 05:44:48;;;;;;;45.35;19.77;;;0.60;99.90;;;;;;2085710;28;20181;-63